Time;durP1;ratioP1;P1;durP2;ratioP2;P2;SDS_P1;SDS_P2;PMS_P1;PMS_P2;Temp;Humidity;BMP_temperature;BMP_pressure;BME280_temperature;BME280_humidity;BME280_pressure;Samples;Min_cycle;Max_cycle;Signal;HPM_P1;HPM_P2
2023/05/02 00:00:00;;;;;;;;;1.50;1.50;;;;;21.79;40.13;100632.42;110213;1251;20067;-42
2023/05/02 00:02:27;;;;;;;;;2.00;2.00;;;;;21.78;40.25;100625.45;110227;1249;19358;-40
2023/05/02 00:04:55;;;;;;;;;2.00;1.00;;;;;21.78;40.31;100621.05;110213;1264;20624;-42
2023/05/02 00:07:22;;;;;;;;;2.00;2.00;;;;;21.79;40.26;100622.44;110214;1265;21126;-41
2023/05/02 00:09:50;;;;;;;;;2.00;2.00;;;;;21.79;40.19;100620.45;110193;1250;22156;-39
2023/05/02 00:12:17;;;;;;;;;1.00;1.00;;;;;21.78;40.38;100617.50;110191;1250;19697;-39
2023/05/02 00:14:44;;;;;;;;;1.00;1.00;;;;;21.77;40.40;100612.44;110192;1250;18722;-39
2023/05/02 00:17:12;;;;;;;;;1.50;1.50;;;;;21.78;40.27;100608.77;110089;1264;20644;-40
2023/05/02 00:19:39;;;;;;;;;1.00;1.00;;;;;21.78;40.31;100606.60;110192;1250;19734;-39
2023/05/02 00:22:07;;;;;;;;;1.00;1.00;;;;;21.77;40.36;100600.09;110169;1264;19953;-42
2023/05/02 00:24:34;;;;;;;;;1.00;1.00;;;;;21.77;40.41;100599.59;110206;1251;20980;-39
2023/05/02 00:27:02;;;;;;;;;1.00;1.00;;;;;21.77;40.25;100597.74;110218;1264;19610;-41
2023/05/02 00:29:29;;;;;;;;;1.00;1.00;;;;;21.76;40.36;100596.40;110198;1264;18653;-40
2023/05/02 00:31:57;;;;;;;;;1.00;1.00;;;;;21.77;40.37;100595.45;110224;1265;19833;-40
2023/05/02 00:34:24;;;;;;;;;1.00;1.00;;;;;21.77;40.58;100592.99;110235;1250;18515;-39
2023/05/02 00:36:51;;;;;;;;;2.00;1.00;;;;;21.76;40.37;100586.25;110199;1262;21304;-39
2023/05/02 00:39:19;;;;;;;;;2.00;2.00;;;;;21.77;40.36;100585.26;110197;1251;21346;-40
2023/05/02 00:41:46;;;;;;;;;1.00;1.00;;;;;21.76;40.34;100582.73;110192;1250;20471;-40
2023/05/02 00:44:14;;;;;;;;;1.00;1.00;;;;;21.77;40.45;100578.71;110167;1264;19929;-40
2023/05/02 00:46:41;;;;;;;;;1.00;1.00;;;;;21.76;40.59;100578.00;110199;1250;20763;-40
2023/05/02 00:49:09;;;;;;;;;1.00;1.00;;;;;21.76;40.54;100576.77;110206;1265;18570;-41
2023/05/02 00:51:36;;;;;;;;;1.00;1.00;;;;;21.77;40.43;100579.25;110211;1251;20194;-40
2023/05/02 00:54:04;;;;;;;;;1.00;1.00;;;;;21.77;40.55;100575.61;110216;1256;19388;-40
2023/05/02 00:56:31;;;;;;;;;1.00;1.00;;;;;21.77;40.72;100576.65;110191;1265;18434;-40
2023/05/02 00:59:00;;;;;;;;;1.50;1.50;;;;;21.77;40.58;100573.77;110178;1264;19126;-40
2023/05/02 01:01:27;;;;;;;;;1.00;1.00;;;;;21.77;40.53;100572.63;110259;1250;21923;-41
2023/05/02 01:03:55;;;;;;;;;2.00;2.00;;;;;21.76;40.69;100568.75;110276;1261;19862;-41
2023/05/02 01:06:22;;;;;;;;;1.00;1.00;;;;;21.76;40.53;100566.36;110246;1264;22187;-41
2023/05/02 01:08:50;;;;;;;;;1.00;1.00;;;;;21.77;40.58;100561.59;110284;1264;22001;-40
2023/05/02 01:11:18;;;;;;;;;2.00;2.00;;;;;21.76;40.71;100557.14;110258;1249;22825;-40
2023/05/02 01:13:46;;;;;;;;;1.00;1.00;;;;;21.77;40.52;100565.55;110185;1264;20024;-41
2023/05/02 01:16:13;;;;;;;;;1.00;1.00;;;;;21.76;40.56;100562.58;110152;1251;20817;-40
2023/05/02 01:18:41;;;;;;;;;1.00;1.00;;;;;21.77;40.53;100560.70;110152;1264;18416;-41
2023/05/02 01:21:08;;;;;;;;;1.00;1.00;;;;;21.77;40.64;100559.95;110177;1264;20048;-40
2023/05/02 01:23:36;;;;;;;;;2.00;2.00;;;;;21.76;40.71;100555.33;110222;1264;19388;-41
2023/05/02 01:26:03;;;;;;;;;2.00;2.00;;;;;21.77;40.44;100557.98;110204;1250;18429;-41
2023/05/02 01:28:31;;;;;;;;;1.00;1.00;;;;;21.78;40.44;100564.41;110201;1265;20012;-41
2023/05/02 01:30:58;;;;;;;;;1.50;1.50;;;;;21.76;40.62;100558.93;110143;1250;22006;-41
2023/05/02 01:33:26;;;;;;;;;1.00;1.00;;;;;21.76;40.58;100557.66;110233;1264;22203;-39
2023/05/02 01:35:53;;;;;;;;;1.00;1.00;;;;;21.77;40.72;100557.77;110249;1264;20204;-40
2023/05/02 01:38:20;;;;;;;;;1.00;1.00;;;;;21.76;40.61;100560.98;110188;1251;20974;-41
2023/05/02 01:40:48;;;;;;;;;1.50;1.00;;;;;21.76;40.86;100558.08;110198;1250;19679;-40
2023/05/02 01:43:15;;;;;;;;;1.00;1.00;;;;;21.76;40.79;100560.05;110207;1264;18616;-42
2023/05/02 01:45:43;;;;;;;;;1.00;1.00;;;;;21.75;40.75;100552.19;110207;1264;19917;-40
2023/05/02 01:48:10;;;;;;;;;2.00;2.00;;;;;21.75;40.66;100549.62;110198;1250;19680;-43
2023/05/02 01:50:38;;;;;;;;;;;;;;;21.75;40.73;100543.12;110215;1256;18661;-41
2023/05/02 01:53:05;;;;;;;;;2.00;2.00;;;;;21.75;40.71;100540.39;110170;1250;20886;-40
2023/05/02 01:55:32;;;;;;;;;1.00;1.00;;;;;21.74;40.80;100539.34;110188;1264;18254;-40
2023/05/02 01:58:00;;;;;;;;;2.00;1.00;;;;;21.74;40.79;100536.98;110184;1265;21598;-43
2023/05/02 02:00:27;;;;;;;;;2.00;2.00;;;;;21.75;40.79;100539.46;110187;1264;20712;-40
2023/05/02 02:02:55;;;;;;;;;1.00;1.00;;;;;21.74;40.82;100539.38;110117;1249;18723;-41
2023/05/02 02:05:22;;;;;;;;;1.00;1.00;;;;;21.74;40.77;100537.86;110190;1250;19820;-40
2023/05/02 02:07:50;;;;;;;;;1.00;1.00;;;;;21.74;40.82;100537.06;110240;1264;20727;-42
2023/05/02 02:10:17;;;;;;;;;1.00;1.00;;;;;21.75;40.70;100532.04;110238;1264;19576;-42
2023/05/02 02:12:44;;;;;;;;;1.00;1.00;;;;;21.74;40.87;100532.08;110231;1250;20010;-40
2023/05/02 02:15:12;;;;;;;;;2.00;2.00;;;;;21.74;40.77;100528.46;110246;1250;20800;-40
2023/05/02 02:17:40;;;;;;;;;1.00;1.00;;;;;21.74;40.64;100529.69;110190;1248;22741;-40
2023/05/02 02:20:07;;;;;;;;;1.00;1.00;;;;;21.74;40.77;100528.98;110089;1264;22802;-41
2023/05/02 02:22:35;;;;;;;;;2.00;2.00;;;;;21.74;40.73;100529.52;110183;1259;20703;-41
2023/05/02 02:25:03;;;;;;;;;2.00;2.00;;;;;21.75;40.70;100529.27;110202;1265;19677;-40
2023/05/02 02:27:30;;;;;;;;;1.00;1.00;;;;;21.74;40.92;100523.56;110227;1264;19978;-42
2023/05/02 02:29:58;;;;;;;;;1.00;1.00;;;;;21.75;40.87;100528.39;110206;1264;20715;-41
2023/05/02 02:32:25;;;;;;;;;1.00;1.00;;;;;21.74;40.93;100525.23;110133;1265;19582;-41
2023/05/02 02:34:54;;;;;;;;;1.00;1.00;;;;;21.74;40.90;100526.08;110140;1256;21288;-41
2023/05/02 02:37:21;;;;;;;;;1.00;1.00;;;;;21.74;40.77;100526.45;110169;1250;22653;-40
2023/05/02 02:39:49;;;;;;;;;1.00;1.00;;;;;21.75;40.69;100525.98;110187;1264;18731;-40
2023/05/02 02:42:16;;;;;;;;;2.00;2.00;;;;;21.74;40.90;100522.89;110270;1256;18627;-41
2023/05/02 02:44:44;;;;;;;;;1.00;1.00;;;;;21.74;40.86;100527.13;110203;1264;20570;-40
2023/05/02 02:47:11;;;;;;;;;1.00;1.00;;;;;21.73;40.97;100524.56;110214;1264;18422;-41
2023/05/02 02:49:39;;;;;;;;;1.00;1.00;;;;;21.73;40.90;100519.98;110196;1264;18794;-41
2023/05/02 02:52:07;;;;;;;;;1.00;1.00;;;;;21.73;40.83;100517.50;110222;1249;20933;-41
2023/05/02 02:54:34;;;;;;;;;1.00;1.00;;;;;21.74;40.83;100517.93;110190;1264;19677;-41
2023/05/02 02:57:02;;;;;;;;;1.00;1.00;;;;;21.73;40.87;100517.46;110175;1265;21179;-44
2023/05/02 02:59:30;;;;;;;;;2.00;1.00;;;;;21.74;40.92;100519.98;110203;1249;20776;-39
2023/05/02 03:01:57;;;;;;;;;1.00;1.00;;;;;21.73;40.94;100518.89;110195;1265;20569;-39
2023/05/02 03:04:25;;;;;;;;;1.00;1.00;;;;;21.73;40.82;100519.10;110211;1252;18610;-40
2023/05/02 03:06:52;;;;;;;;;1.00;1.00;;;;;21.74;41.04;100523.80;110332;1264;21757;-41
2023/05/02 03:09:19;;;;;;;;;1.00;1.00;;;;;21.73;40.84;100521.45;110280;1250;18420;-40
2023/05/02 03:11:47;;;;;;;;;1.00;1.00;;;;;21.73;41.01;100519.90;110233;1259;18483;-41
2023/05/02 03:14:14;;;;;;;;;1.00;1.00;;;;;21.73;40.95;100519.18;110170;1250;20772;-40
2023/05/02 03:16:42;;;;;;;;;1.00;1.00;;;;;21.73;40.98;100523.75;110200;1264;19593;-41
2023/05/02 03:19:09;;;;;;;;;1.00;1.00;;;;;21.72;40.99;100523.04;110186;1265;21394;-40
2023/05/02 03:21:37;;;;;;;;;1.00;1.00;;;;;21.73;40.89;100521.88;110220;1250;20842;-39
2023/05/02 03:24:04;;;;;;;;;1.00;1.00;;;;;21.73;40.81;100525.89;110197;1251;19617;-39
2023/05/02 03:26:31;;;;;;;;;1.00;1.00;;;;;21.73;40.89;100525.10;110240;1264;18633;-40
2023/05/02 03:28:59;;;;;;;;;1.00;1.00;;;;;21.72;40.82;100525.34;110202;1265;19524;-39
2023/05/02 03:31:26;;;;;;;;;2.00;2.00;;;;;21.73;40.86;100528.28;110166;1264;23383;-40
2023/05/02 03:33:54;;;;;;;;;1.00;1.00;;;;;21.73;40.97;100532.81;110237;1264;18635;-41
2023/05/02 03:36:21;;;;;;;;;1.00;1.00;;;;;21.74;41.11;100538.53;110187;1248;19355;-41
2023/05/02 03:38:49;;;;;;;;;1.00;1.00;;;;;21.73;41.17;100545.33;110206;1264;18495;-40
2023/05/02 03:41:17;;;;;;;;;1.00;1.00;;;;;21.74;41.16;100546.67;110208;1251;20011;-40
2023/05/02 03:43:44;;;;;;;;;1.00;1.00;;;;;21.74;40.97;100545.80;110190;1264;19590;-40
2023/05/02 03:46:12;;;;;;;;;1.00;1.00;;;;;21.73;41.14;100542.98;110162;1250;22309;-41
2023/05/02 03:48:39;;;;;;;;;1.00;1.00;;;;;21.74;41.03;100546.52;110182;1265;18582;-40
2023/05/02 03:51:08;;;;;;;;;1.00;1.00;;;;;21.73;41.08;100548.05;110191;1256;22618;-45
2023/05/02 03:53:36;;;;;;;;;1.00;1.00;;;;;21.73;40.97;100556.04;110161;1264;22035;-40
2023/05/02 03:56:03;;;;;;;;;1.00;1.00;;;;;21.73;40.98;100558.84;110189;1251;21282;-39
2023/05/02 03:58:31;;;;;;;;;1.00;1.00;;;;;21.73;41.07;100561.11;110194;1259;20664;-41
2023/05/02 04:00:58;;;;;;;;;1.00;1.00;;;;;21.73;41.21;100560.90;110202;1250;20096;-40
2023/05/02 04:03:26;;;;;;;;;1.00;1.00;;;;;21.73;41.05;100566.94;110238;1264;18588;-40
2023/05/02 04:05:53;;;;;;;;;1.00;1.00;;;;;21.73;41.01;100574.24;110231;1264;20998;-40
2023/05/02 04:08:21;;;;;;;;;1.00;1.00;;;;;21.73;41.24;100577.14;110241;1264;18645;-40
2023/05/02 04:10:48;;;;;;;;;1.00;1.00;;;;;21.73;41.06;100572.40;110199;1264;19091;-40
2023/05/02 04:13:15;;;;;;;;;1.00;1.00;;;;;21.73;41.09;100572.44;110130;1264;19667;-40
2023/05/02 04:15:43;;;;;;;;;1.00;1.00;;;;;21.72;41.20;100567.95;110087;1250;19550;-40
2023/05/02 04:18:10;;;;;;;;;1.00;1.00;;;;;21.73;41.12;100562.25;110163;1265;22912;-40
2023/05/02 04:20:38;;;;;;;;;1.00;1.00;;;;;21.72;41.07;100561.40;110061;1251;20776;-40
2023/05/02 04:23:05;;;;;;;;;;;;;;;21.71;41.24;100560.59;110101;1264;18342;-41
2023/05/02 04:25:32;;;;;;;;;1.00;1.00;;;;;21.73;41.09;100561.95;110110;1256;22659;-40
2023/05/02 04:28:00;;;;;;;;;1.00;1.00;;;;;21.73;41.07;100567.02;110135;1251;20841;-41
2023/05/02 04:30:27;;;;;;;;;1.00;1.00;;;;;21.73;41.24;100569.38;110195;1250;18587;-40
2023/05/02 04:32:55;;;;;;;;;1.00;1.00;;;;;21.73;41.11;100572.27;110212;1256;23160;-40
2023/05/02 04:35:22;;;;;;;;;1.00;1.00;;;;;21.75;41.48;100576.54;110191;1253;20795;-40
2023/05/02 04:37:50;;;;;;;;;1.00;1.00;;;;;21.76;41.55;100579.33;110197;1251;19837;-40
2023/05/02 04:40:17;;;;;;;;;1.50;1.50;;;;;21.77;41.62;100576.87;110189;1264;18622;-41
2023/05/02 04:42:45;;;;;;;;;2.00;1.00;;;;;21.78;41.52;100575.12;110187;1250;20769;-40
2023/05/02 04:45:12;;;;;;;;;1.00;1.00;;;;;21.78;41.55;100581.97;110201;1250;22796;-42
2023/05/02 04:47:40;;;;;;;;;1.00;1.00;;;;;21.79;41.70;100585.49;110223;1264;20783;-40
2023/05/02 04:50:08;;;;;;;;;2.00;2.00;;;;;21.79;41.70;100587.17;110212;1256;19462;-39
2023/05/02 04:52:35;;;;;;;;;1.00;1.00;;;;;21.80;41.39;100584.33;110175;1250;22917;-40
2023/05/02 04:55:02;;;;;;;;;2.00;2.00;;;;;21.79;41.46;100583.90;110174;1264;18573;-40
2023/05/02 04:57:30;;;;;;;;;2.00;1.00;;;;;21.78;41.31;100581.38;110244;1264;20635;-42
2023/05/02 04:59:58;;;;;;;;;4.00;2.00;;;;;21.77;41.47;100583.92;110203;1251;19917;-40
2023/05/02 05:02:25;;;;;;;;;1.00;1.00;;;;;21.78;41.37;100583.10;110228;1265;22316;-42
2023/05/02 05:04:53;;;;;;;;;2.00;2.00;;;;;21.80;41.37;100586.34;110207;1265;19668;-40
2023/05/02 05:07:21;;;;;;;;;2.00;2.00;;;;;21.80;41.47;100589.04;110186;1264;19869;-41
2023/05/02 05:09:48;;;;;;;;;2.00;2.00;;;;;21.79;41.82;100590.54;110181;1264;20110;-41
2023/05/02 05:12:16;;;;;;;;;5.00;4.00;;;;;21.77;41.79;100595.59;110229;1264;19588;-41
2023/05/02 05:14:43;;;;;;;;;10.00;10.00;;;;;21.71;41.28;100594.83;110219;1251;19751;-42
2023/05/02 05:17:11;;;;;;;;;11.00;10.00;;;;;21.63;40.68;100598.90;110187;1264;21616;-42
2023/05/02 05:19:38;;;;;;;;;12.00;10.00;;;;;21.54;40.00;100596.33;110171;1264;19508;-42
2023/05/02 05:22:06;;;;;;;;;14.00;13.00;;;;;21.47;39.61;100592.61;110199;1264;18929;-41
2023/05/02 05:24:33;;;;;;;;;11.00;11.00;;;;;21.40;39.44;100595.71;110143;1264;20151;-42
2023/05/02 05:27:00;;;;;;;;;18.00;17.00;;;;;21.40;39.14;100601.16;110228;1264;19341;-41
2023/05/02 05:29:28;;;;;;;;;14.00;13.00;;;;;21.39;39.08;100605.46;110179;1264;19988;-42
2023/05/02 05:31:55;;;;;;;;;13.00;13.00;;;;;21.37;38.70;100609.71;110188;1264;22732;-48
2023/05/02 05:34:24;;;;;;;;;14.00;13.00;;;;;21.34;38.66;100616.22;110209;1249;19383;-41
2023/05/02 05:36:51;;;;;;;;;30.00;24.00;;;;;21.30;38.41;100616.14;110218;1265;18751;-41
2023/05/02 05:39:18;;;;;;;;;22.00;20.00;;;;;21.28;38.47;100617.96;110151;1250;20104;-41
2023/05/02 05:41:46;;;;;;;;;18.00;18.00;;;;;21.28;38.19;100622.89;110088;1250;20775;-42
2023/05/02 05:44:13;;;;;;;;;18.00;16.00;;;;;21.26;38.30;100626.77;110112;1264;22345;-41
2023/05/02 05:46:41;;;;;;;;;19.00;17.00;;;;;21.23;38.19;100626.06;110180;1264;22054;-42
2023/05/02 05:49:08;;;;;;;;;17.00;15.50;;;;;21.21;38.02;100629.61;110182;1251;20882;-41
2023/05/02 05:51:36;;;;;;;;;21.00;17.00;;;;;21.21;37.91;100632.09;110199;1251;20013;-41
2023/05/02 05:54:03;;;;;;;;;19.50;16.50;;;;;21.19;38.05;100629.05;110133;1264;18763;-41
2023/05/02 05:56:31;;;;;;;;;18.00;16.50;;;;;21.19;38.16;100630.39;110192;1251;21462;-42
2023/05/02 05:58:58;;;;;;;;;14.00;13.00;;;;;21.18;38.24;100633.40;110218;1264;18589;-41
2023/05/02 06:01:25;;;;;;;;;16.00;16.00;;;;;21.17;37.99;100633.52;110187;1251;20089;-42
2023/05/02 06:03:53;;;;;;;;;11.00;11.00;;;;;21.16;38.07;100644.77;110229;1265;19359;-40
2023/05/02 06:06:20;;;;;;;;;13.33;13.00;;;;;21.16;38.26;100645.76;110154;1264;20914;-41
2023/05/02 06:08:48;;;;;;;;;12.00;10.50;;;;;21.20;38.29;100647.30;110254;1264;18979;-40
2023/05/02 06:11:15;;;;;;;;;11.00;10.00;;;;;21.25;38.41;100649.69;110211;1249;19351;-39
2023/05/02 06:13:42;;;;;;;;;11.00;8.67;;;;;21.28;38.40;100652.20;110283;1251;20041;-39
2023/05/02 06:16:10;;;;;;;;;10.00;10.00;;;;;21.31;38.63;100652.19;110200;1256;23005;-39
2023/05/02 06:18:37;;;;;;;;;13.00;13.00;;;;;21.38;38.64;100661.41;110185;1250;20792;-40
2023/05/02 06:21:05;;;;;;;;;8.00;8.00;;;;;21.43;38.68;100652.90;110189;1256;23355;-39
2023/05/02 06:23:32;;;;;;;;;12.00;10.00;;;;;21.49;39.31;100655.69;110173;1264;19982;-39
2023/05/02 06:26:00;;;;;;;;;11.00;8.00;;;;;21.54;40.82;100655.14;110229;1264;19372;-40
2023/05/02 06:28:28;;;;;;;;;15.00;14.00;;;;;21.54;41.45;100668.40;110221;1256;21923;-39
2023/05/02 06:30:55;;;;;;;;;11.00;11.00;;;;;21.46;41.19;100673.46;110259;1264;18915;-40
2023/05/02 06:33:23;;;;;;;;;13.00;13.00;;;;;21.44;41.60;100680.47;110246;1264;20867;-39
2023/05/02 06:35:50;;;;;;;;;13.00;13.00;;;;;21.51;41.63;100682.50;110238;1258;18632;-40
2023/05/02 06:38:18;;;;;;;;;12.00;10.00;;;;;21.57;42.79;100686.58;110177;1264;20172;-39
2023/05/02 06:40:45;;;;;;;;;11.00;10.00;;;;;21.62;43.33;100687.28;110129;1264;19385;-40
2023/05/02 06:43:13;;;;;;;;;8.00;8.00;;;;;21.64;43.69;100685.90;110214;1265;18589;-39
2023/05/02 06:45:40;;;;;;;;;10.00;10.00;;;;;21.68;44.23;100688.48;110177;1264;18666;-42
2023/05/02 06:48:08;;;;;;;;;11.00;10.00;;;;;21.71;44.36;100683.80;110191;1250;22052;-40
2023/05/02 06:50:35;;;;;;;;;7.00;7.00;;;;;21.72;44.36;100682.42;110164;1265;18616;-41
2023/05/02 06:53:02;;;;;;;;;10.00;7.50;;;;;21.73;44.37;100683.77;110188;1265;18847;-40
2023/05/02 06:55:30;;;;;;;;;8.00;7.00;;;;;21.75;44.35;100690.61;110217;1251;20852;-39
2023/05/02 06:57:57;;;;;;;;;7.00;7.00;;;;;21.76;44.48;100691.69;110183;1264;18609;-41
2023/05/02 07:00:25;;;;;;;;;7.67;7.33;;;;;21.77;44.52;100703.83;110180;1250;21283;-40
2023/05/02 07:02:52;;;;;;;;;8.00;7.00;;;;;21.76;44.41;100704.07;110189;1264;19395;-40
2023/05/02 07:05:20;;;;;;;;;7.00;7.00;;;;;21.78;44.49;100712.06;110203;1265;18444;-40
2023/05/02 07:07:47;;;;;;;;;5.00;5.00;;;;;21.76;44.52;100719.03;110161;1251;21897;-40
2023/05/02 07:10:15;;;;;;;;;7.00;7.00;;;;;21.72;44.36;100722.01;110180;1250;20784;-39
2023/05/02 07:12:42;;;;;;;;;5.00;5.00;;;;;21.72;44.35;100729.10;110193;1264;18443;-39
2023/05/02 07:15:10;;;;;;;;;7.00;5.00;;;;;21.70;44.32;100735.19;110164;1250;20032;-39
2023/05/02 07:17:37;;;;;;;;;5.00;4.00;;;;;21.70;44.18;100739.20;110175;1265;19456;-40
2023/05/02 07:20:04;;;;;;;;;5.00;5.00;;;;;21.69;44.19;100743.64;110189;1264;18484;-40
2023/05/02 07:22:32;;;;;;;;;5.00;5.00;;;;;21.70;44.07;100747.96;110221;1250;20519;-38
2023/05/02 07:24:59;;;;;;;;;5.00;5.00;;;;;21.70;44.14;100751.20;110198;1252;20996;-38
2023/05/02 07:27:27;;;;;;;;;5.00;4.00;;;;;21.70;44.13;100752.67;110244;1264;22204;-39
2023/05/02 07:29:55;;;;;;;;;4.00;4.00;;;;;21.68;44.17;100750.67;110242;1265;18627;-39
2023/05/02 07:32:23;;;;;;;;;5.00;5.00;;;;;21.69;44.19;100753.80;110224;1250;19737;-39
2023/05/02 07:34:53;;;;;;;;;5.00;4.00;;;;;21.71;44.05;100757.86;110177;1256;22475;-41
2023/05/02 07:37:20;;;;;;;;;4.00;4.00;;;;;21.71;44.14;100759.80;110143;1250;21916;-43
2023/05/02 07:39:48;;;;;;;;;7.00;5.00;;;;;21.75;44.45;100760.61;110065;1264;19469;-41
2023/05/02 07:42:15;;;;;;;;;4.00;4.00;;;;;21.80;44.66;100761.59;110126;1265;18395;-42
2023/05/02 07:44:43;;;;;;;;;5.00;5.00;;;;;21.84;44.63;100761.16;110138;1264;19534;-39
2023/05/02 07:47:10;;;;;;;;;5.00;5.00;;;;;21.80;44.71;100763.02;110193;1265;22943;-40
2023/05/02 07:49:37;;;;;;;;;7.00;6.00;;;;;21.76;44.67;100770.30;110179;1250;18331;-39
2023/05/02 07:52:05;;;;;;;;;8.00;8.00;;;;;21.77;44.62;100773.33;110212;1264;19852;-43
2023/05/02 07:54:33;;;;;;;;;27.00;26.00;;;;;21.79;44.62;100772.86;110223;1249;19490;-40
2023/05/02 07:57:02;;;;;;;;;88.50;63.00;;;;;21.80;45.01;100778.54;110168;1250;22057;-40
2023/05/02 07:59:29;;;;;;;;;58.00;44.00;;;;;21.78;44.88;100782.01;110218;1248;22037;-41
2023/05/02 08:01:57;;;;;;;;;82.50;62.00;;;;;21.79;44.65;100784.25;110240;1265;19396;-41
2023/05/02 08:04:24;;;;;;;;;79.33;57.33;;;;;21.81;44.84;100782.02;110236;1250;20057;-39
2023/05/02 08:06:52;;;;;;;;;70.00;51.00;;;;;21.83;44.81;100778.90;110223;1265;21298;-41
2023/05/02 08:09:19;;;;;;;;;64.50;50.00;;;;;21.85;44.98;100782.29;110199;1249;20915;-39
2023/05/02 08:11:47;;;;;;;;;62.33;46.33;;;;;21.88;45.25;100784.31;110183;1251;19969;-41
2023/05/02 08:14:14;;;;;;;;;56.00;43.00;;;;;21.84;45.30;100789.33;110084;1264;18945;-41
2023/05/02 08:16:42;;;;;;;;;44.00;38.00;;;;;21.81;45.43;100796.02;110178;1256;20705;-41
2023/05/02 08:19:09;;;;;;;;;40.00;32.00;;;;;21.80;45.44;100796.26;110177;1264;18621;-40
2023/05/02 08:21:37;;;;;;;;;37.50;32.00;;;;;21.79;45.29;100801.11;110184;1251;18148;-42
2023/05/02 08:24:05;;;;;;;;;34.00;31.00;;;;;21.77;45.47;100799.66;110218;1264;20484;-41
2023/05/02 08:26:32;;;;;;;;;35.00;30.00;;;;;21.79;45.21;100799.05;110247;1265;18610;-42
2023/05/02 08:29:00;;;;;;;;;33.00;24.00;;;;;21.81;45.23;100802.81;110105;1264;129485;-41
2023/05/02 08:31:27;;;;;;;;;23.00;22.00;;;;;21.74;44.91;100806.33;110178;1264;19669;-41
2023/05/02 08:33:54;;;;;;;;;28.50;20.50;;;;;21.66;45.00;100806.83;110185;1250;18561;-40
2023/05/02 08:36:22;;;;;;;;;25.00;21.00;;;;;21.59;44.94;100811.45;110221;1264;18709;-40
2023/05/02 08:38:49;;;;;;;;;21.00;17.00;;;;;21.53;45.03;100815.77;110209;1256;19360;-41
2023/05/02 08:41:17;;;;;;;;;22.33;20.67;;;;;21.52;44.92;100816.19;110191;1264;20010;-41
2023/05/02 08:43:44;;;;;;;;;22.00;19.50;;;;;21.51;44.58;100814.56;110194;1256;18765;-41
2023/05/02 08:46:12;;;;;;;;;23.50;20.50;;;;;21.45;44.58;100818.02;110245;1265;19362;-40
2023/05/02 08:48:39;;;;;;;;;21.00;18.50;;;;;21.45;44.21;100818.17;110245;1265;22684;-41
2023/05/02 08:51:07;;;;;;;;;20.00;18.33;;;;;21.42;44.36;100817.42;110194;1265;20041;-41
2023/05/02 08:53:34;;;;;;;;;17.50;17.00;;;;;21.40;44.09;100821.44;110171;1264;19441;-40
2023/05/02 08:56:01;;;;;;;;;26.67;20.33;;;;;21.37;44.32;100824.52;110154;1264;20297;-41
2023/05/02 08:58:29;;;;;;;;;29.00;26.50;;;;;21.36;44.15;100824.96;110180;1264;18698;-41
2023/05/02 09:00:57;;;;;;;;;25.33;22.33;;;;;21.39;44.24;100824.81;110167;1264;19840;-43
2023/05/02 09:03:25;;;;;;;;;23.00;21.00;;;;;21.38;44.05;100828.11;110100;1250;20060;-41
2023/05/02 09:05:52;;;;;;;;;21.00;20.00;;;;;21.37;44.01;100835.47;110114;1264;22399;-42
2023/05/02 09:08:20;;;;;;;;;23.00;21.00;;;;;21.38;43.88;100834.10;110114;1265;20476;-42
2023/05/02 09:10:47;;;;;;;;;20.50;18.00;;;;;21.31;43.84;100833.38;110159;1264;19988;-41
2023/05/02 09:13:15;;;;;;;;;23.50;19.50;;;;;21.29;43.79;100832.37;110205;1264;18835;-39
2023/05/02 09:15:42;;;;;;;;;18.00;17.00;;;;;21.22;43.65;100829.55;110295;1250;20811;-41
2023/05/02 09:18:09;;;;;;;;;19.00;18.00;;;;;21.18;43.62;100834.32;110240;1249;20088;-40
2023/05/02 09:20:37;;;;;;;;;18.00;16.00;;;;;21.22;43.72;100834.67;110196;1250;20092;-41
2023/05/02 09:23:04;;;;;;;;;17.50;17.00;;;;;21.25;43.78;100838.13;110185;1251;20707;-41
2023/05/02 09:25:32;;;;;;;;;14.00;14.00;;;;;21.29;43.35;100839.26;110209;1264;18600;-41
2023/05/02 09:28:00;;;;;;;;;14.00;13.50;;;;;21.33;43.26;100844.31;110196;1265;18897;-42
2023/05/02 09:30:28;;;;;;;;;13.50;12.00;;;;;21.32;43.09;100840.11;110202;1251;20870;-41
2023/05/02 09:32:55;;;;;;;;;13.50;13.50;;;;;21.34;43.23;100843.42;110258;1250;20024;-42
2023/05/02 09:35:26;;;;;;;;;14.50;14.00;;;;;21.38;42.93;100848.61;110226;1259;20144;-41
2023/05/02 09:37:53;;;;;;;;;14.00;14.00;;;;;21.38;43.02;100851.72;110099;1250;20854;-41
2023/05/02 09:40:22;;;;;;;;;14.00;14.00;;;;;21.38;43.15;100850.67;110182;1249;20215;-43
2023/05/02 09:42:49;;;;;;;;;15.00;13.50;;;;;21.39;43.30;100852.63;110150;1265;22068;-41
2023/05/02 09:45:16;;;;;;;;;15.00;14.00;;;;;21.42;43.31;100853.82;110263;1264;19542;-41
2023/05/02 09:47:46;;;;;;;;;13.00;11.00;;;;;21.42;43.16;100853.27;110226;1265;19106;-41
2023/05/02 09:50:13;;;;;;;;;13.67;13.67;;;;;21.44;43.07;100855.95;110134;1250;22941;-41
2023/05/02 09:52:41;;;;;;;;;13.00;11.00;;;;;21.45;43.14;100856.90;110240;1264;20671;-41
2023/05/02 09:55:08;;;;;;;;;13.00;11.00;;;;;21.46;42.95;100858.25;110265;1265;20184;-41
2023/05/02 09:57:36;;;;;;;;;11.00;11.00;;;;;21.44;42.95;100859.52;110218;1265;20309;-41
2023/05/02 10:00:03;;;;;;;;;11.00;10.00;;;;;21.46;42.69;100856.79;110197;1259;21131;-41
2023/05/02 10:02:31;;;;;;;;;13.00;10.00;;;;;21.49;42.60;100854.17;110145;1249;19283;-41
2023/05/02 10:04:58;;;;;;;;;7.50;7.50;;;;;21.50;42.36;100857.13;110091;1264;20051;-41
2023/05/02 10:07:26;;;;;;;;;13.00;10.00;;;;;21.50;42.05;100858.30;110125;1248;21857;-41
2023/05/02 10:09:53;;;;;;;;;8.00;8.00;;;;;21.48;41.96;100865.23;110243;1249;22230;-40
2023/05/02 10:12:21;;;;;;;;;9.33;8.67;;;;;21.49;41.48;100864.38;110263;1264;19944;-42
2023/05/02 10:14:48;;;;;;;;;11.00;8.00;;;;;21.50;41.26;100866.95;110179;1251;22131;-41
2023/05/02 10:17:16;;;;;;;;;8.00;8.00;;;;;21.52;40.96;100867.15;110221;1264;18236;-41
2023/05/02 10:19:43;;;;;;;;;8.00;7.00;;;;;21.53;40.78;100863.08;110194;1264;19965;-41
2023/05/02 10:22:11;;;;;;;;;10.50;10.00;;;;;21.51;40.48;100870.20;110173;1251;21027;-43
2023/05/02 10:24:38;;;;;;;;;10.00;10.00;;;;;21.51;40.28;100871.77;110208;1265;22306;-41
2023/05/02 10:27:06;;;;;;;;;13.00;11.00;;;;;21.50;40.29;100871.56;110186;1264;20062;-44
2023/05/02 10:29:33;;;;;;;;;11.00;8.00;;;;;21.47;40.18;100867.69;110210;1251;20758;-41
2023/05/02 12:42:13;;;;;;;;;16.00;16.00;;;;;21.69;38.59;100969.48;107607;1277;21938;-38
2023/05/02 12:44:40;;;;;;;;;17.00;17.00;;;;;21.80;38.67;100979.12;108538;1273;92339;-40
2023/05/02 12:47:08;;;;;;;;;18.50;15.00;;;;;21.69;38.78;100979.90;110227;1265;18839;-39
2023/05/02 12:49:35;;;;;;;;;12.00;12.00;;;;;21.66;38.86;100979.02;110174;1266;21800;-40
2023/05/02 12:52:03;;;;;;;;;17.00;14.00;;;;;21.73;39.03;100982.40;110201;1251;22080;-40
2023/05/02 12:54:30;;;;;;;;;14.00;12.00;;;;;21.73;39.17;100982.36;110274;1260;21948;-40
2023/05/02 12:56:57;;;;;;;;;14.00;14.00;;;;;21.75;39.18;100986.10;110289;1251;19490;-43
2023/05/02 12:59:25;;;;;;;;;10.50;10.50;;;;;21.73;39.50;100990.85;110180;1264;18350;-40
2023/05/02 13:01:52;;;;;;;;;14.00;14.00;;;;;21.74;40.07;100988.84;110195;1259;20160;-40
2023/05/02 13:04:19;;;;;;;;;12.00;11.00;;;;;21.73;39.82;100993.48;110237;1266;21840;-40
2023/05/02 13:06:47;;;;;;;;;14.00;12.00;;;;;21.72;39.80;100993.73;110306;1251;19802;-40
2023/05/02 13:09:15;;;;;;;;;15.00;13.00;;;;;21.69;39.75;101000.79;110260;1264;18680;-40
2023/05/02 13:11:43;;;;;;;;;20.00;15.00;;;;;21.64;39.53;100999.41;110321;1264;18085;-39
2023/05/02 13:14:10;;;;;;;;;12.33;12.33;;;;;21.59;39.18;101003.80;110246;1251;19840;-40
2023/05/02 13:16:38;;;;;;;;;17.00;16.33;;;;;21.65;39.57;101003.89;110288;1250;20053;-40
2023/05/02 13:19:05;;;;;;;;;34.00;28.00;;;;;21.73;39.54;101008.90;110280;1265;21740;-40
2023/05/02 13:21:32;;;;;;;;;38.00;34.00;;;;;21.77;39.51;101008.61;110341;1251;19743;-41